createdAt,value
2017-01-25T00:00:31.162Z,1011.22
2017-01-25T00:01:11.755Z,1011.21
2017-01-25T00:01:52.336Z,1011.25
2017-01-25T00:02:32.917Z,1011.21
2017-01-25T00:03:13.496Z,1011.22
2017-01-25T00:03:54.085Z,1011.23
2017-01-25T00:04:34.683Z,1011.23
2017-01-25T00:05:15.278Z,1011.25
2017-01-25T00:05:55.877Z,1011.26
2017-01-25T00:06:36.463Z,1011.24
2017-01-25T00:07:17.046Z,1011.28
2017-01-25T00:07:57.630Z,1011.25
2017-01-25T00:08:38.206Z,1011.3
2017-01-25T00:09:18.786Z,1011.23
2017-01-25T00:09:59.404Z,1011.26
2017-01-25T00:10:39.973Z,1011.24
2017-01-25T00:11:20.557Z,1011.23
2017-01-25T00:12:01.147Z,1011.17
2017-01-25T00:12:41.724Z,1011.15
2017-01-25T00:13:22.311Z,1011.14
2017-01-25T00:14:02.914Z,1011.16
2017-01-25T00:14:43.508Z,1011.14
2017-01-25T00:15:24.085Z,1011.13
2017-01-25T00:16:04.661Z,1011.1
2017-01-25T00:16:45.243Z,1011.09
2017-01-25T00:17:25.813Z,1011.11
2017-01-25T00:18:06.413Z,1011.1
2017-01-25T00:18:46.988Z,1011.08
2017-01-25T00:19:27.583Z,1011.05
2017-01-25T00:20:08.187Z,1011.06
2017-01-25T00:20:48.774Z,1011.04
2017-01-25T00:21:29.365Z,1011.06
2017-01-25T00:22:09.954Z,1011.04
2017-01-25T00:22:50.553Z,1011.04
2017-01-25T00:23:31.133Z,1011.03
2017-01-25T00:24:11.723Z,1011.02
2017-01-25T00:24:52.295Z,1011.02
2017-01-25T00:25:32.887Z,1011.04
2017-01-25T00:26:13.472Z,1010.97
2017-01-25T00:26:54.045Z,1011.01
2017-01-25T00:27:34.639Z,1010.99
2017-01-25T00:28:15.226Z,1011
2017-01-25T00:28:55.798Z,1010.97
2017-01-25T00:29:36.402Z,1010.97
2017-01-25T00:30:16.982Z,1010.96
2017-01-25T00:30:57.562Z,1010.95
2017-01-25T00:31:38.140Z,1010.94
2017-01-25T00:32:18.731Z,1010.91
2017-01-25T00:32:59.317Z,1010.88
2017-01-25T00:33:39.897Z,1010.89
2017-01-25T00:34:20.492Z,1010.86
2017-01-25T00:35:01.120Z,1010.88
2017-01-25T00:35:41.702Z,1010.91
2017-01-25T00:36:22.283Z,1010.91
2017-01-25T00:37:02.864Z,1010.92
2017-01-25T00:37:43.457Z,1010.91
2017-01-25T00:38:24.060Z,1010.88
2017-01-25T00:39:04.678Z,1010.9
2017-01-25T00:39:45.271Z,1010.9
2017-01-25T00:40:25.859Z,1010.9
2017-01-25T00:41:06.474Z,1010.89
2017-01-25T00:41:47.054Z,1010.88
2017-01-25T00:42:27.639Z,1010.94
2017-01-25T00:43:08.227Z,1010.91
2017-01-25T00:43:48.830Z,1010.88
2017-01-25T00:44:29.411Z,1010.91
2017-01-25T00:45:09.993Z,1010.86
2017-01-25T00:45:50.571Z,1010.86
2017-01-25T00:46:31.158Z,1010.86
2017-01-25T00:47:11.732Z,1010.86
2017-01-25T00:47:52.325Z,1010.83
2017-01-25T00:48:32.913Z,1010.86
2017-01-25T00:49:13.499Z,1010.85
2017-01-25T00:49:54.091Z,1010.83
2017-01-25T00:50:34.692Z,1010.84
2017-01-25T00:51:15.294Z,1010.81
2017-01-25T00:51:55.892Z,1010.82
2017-01-25T00:52:36.483Z,1010.8
2017-01-25T00:53:17.078Z,1010.79
2017-01-25T00:53:57.656Z,1010.77
2017-01-25T00:54:38.256Z,1010.76
2017-01-25T00:55:18.855Z,1010.77
2017-01-25T00:55:59.442Z,1010.79
2017-01-25T00:56:40.031Z,1010.8
2017-01-25T00:57:20.617Z,1010.78
2017-01-25T00:58:01.197Z,1010.78
2017-01-25T00:58:41.775Z,1010.76
2017-01-25T00:59:22.369Z,1010.71
2017-01-25T01:00:02.952Z,1010.73
2017-01-25T01:00:43.527Z,1010.7
2017-01-25T01:01:24.133Z,1010.67
2017-01-25T01:02:04.714Z,1010.69
2017-01-25T01:02:45.299Z,1010.7
2017-01-25T01:03:25.885Z,1010.7
2017-01-25T01:04:06.483Z,1010.69
2017-01-25T01:04:47.084Z,1010.73
2017-01-25T01:05:27.669Z,1010.71
2017-01-25T01:06:08.257Z,1010.71
2017-01-25T01:06:48.839Z,1010.69
2017-01-25T01:07:29.439Z,1010.72
2017-01-25T01:08:10.054Z,1010.67
2017-01-25T01:08:50.641Z,1010.7
2017-01-25T01:09:31.221Z,1010.7
2017-01-25T01:10:11.799Z,1010.72
2017-01-25T01:10:52.403Z,1010.72
2017-01-25T01:11:32.992Z,1010.71
2017-01-25T01:12:13.578Z,1010.72
2017-01-25T01:12:54.156Z,1010.72
2017-01-25T01:13:34.742Z,1010.72
2017-01-25T01:14:15.327Z,1010.7
2017-01-25T01:14:55.907Z,1010.72
2017-01-25T01:15:36.503Z,1010.71
2017-01-25T01:16:17.089Z,1010.69
2017-01-25T01:16:57.669Z,1010.74
2017-01-25T01:17:38.247Z,1010.71
2017-01-25T01:18:18.831Z,1010.71
2017-01-25T01:18:59.421Z,1010.7
2017-01-25T01:19:40.000Z,1010.69
2017-01-25T01:20:20.580Z,1010.68
2017-01-25T01:21:01.163Z,1010.69
2017-01-25T01:21:41.749Z,1010.67
2017-01-25T01:22:22.332Z,1010.65
2017-01-25T01:23:02.928Z,1010.66
2017-01-25T01:23:43.521Z,1010.65
2017-01-25T01:24:24.102Z,1010.62
2017-01-25T01:25:04.685Z,1010.67
2017-01-25T01:25:45.261Z,1010.64
2017-01-25T01:26:25.846Z,1010.63
2017-01-25T01:27:06.431Z,1010.62
2017-01-25T01:27:47.013Z,1010.65
2017-01-25T01:28:27.587Z,1010.63
2017-01-25T01:29:08.180Z,1010.61
2017-01-25T01:29:48.758Z,1010.65
2017-01-25T01:30:29.346Z,1010.62
2017-01-25T01:31:09.941Z,1010.64
2017-01-25T01:31:50.549Z,1010.63
2017-01-25T01:32:31.134Z,1010.61
2017-01-25T01:33:11.734Z,1010.59
2017-01-25T01:33:52.351Z,1010.62
2017-01-25T01:34:32.958Z,1010.64
2017-01-25T01:35:13.540Z,1010.66
2017-01-25T01:35:54.124Z,1010.61
2017-01-25T01:36:34.730Z,1010.64
2017-01-25T01:37:15.320Z,1010.68
2017-01-25T01:37:55.920Z,1010.6
2017-01-25T01:38:36.519Z,1010.63
2017-01-25T01:39:17.109Z,1010.63
2017-01-25T01:39:57.706Z,1010.66
2017-01-25T01:40:38.286Z,1010.59
2017-01-25T01:41:18.867Z,1010.61
2017-01-25T01:42:00.271Z,1010.62
2017-01-25T01:42:40.888Z,1010.61
2017-01-25T01:43:21.474Z,1010.59
2017-01-25T01:44:02.071Z,1010.6
2017-01-25T01:44:42.647Z,1010.6
2017-01-25T01:45:23.238Z,1010.59
2017-01-25T01:46:03.830Z,1010.63
2017-01-25T01:46:44.415Z,1010.58
2017-01-25T01:47:25.009Z,1010.54
2017-01-25T01:48:05.596Z,1010.53
2017-01-25T01:48:46.186Z,1010.57
2017-01-25T01:49:26.774Z,1010.56
2017-01-25T01:50:07.365Z,1010.6
2017-01-25T01:50:47.963Z,1010.55
2017-01-25T01:51:28.557Z,1010.56
2017-01-25T01:52:09.149Z,1010.52
2017-01-25T01:52:49.736Z,1010.56
2017-01-25T01:53:30.334Z,1010.55
2017-01-25T01:54:10.922Z,1010.49
2017-01-25T01:54:51.515Z,1010.52
2017-01-25T01:55:32.116Z,1010.53
2017-01-25T01:56:12.703Z,1010.51
2017-01-25T01:56:53.303Z,1010.49
2017-01-25T01:57:33.879Z,1010.49
2017-01-25T01:58:14.461Z,1010.5
2017-01-25T01:58:55.051Z,1010.48
2017-01-25T01:59:35.635Z,1010.5
2017-01-25T02:00:16.216Z,1010.53
2017-01-25T02:00:56.812Z,1010.51
2017-01-25T02:01:37.395Z,1010.54
2017-01-25T02:02:17.984Z,1010.5
2017-01-25T02:02:58.572Z,1010.51
2017-01-25T02:03:39.173Z,1010.53
2017-01-25T02:04:19.776Z,1010.54
2017-01-25T02:05:00.367Z,1010.52
2017-01-25T02:05:40.959Z,1010.51
2017-01-25T02:06:21.554Z,1010.5
2017-01-25T02:07:02.134Z,1010.53
2017-01-25T02:07:42.717Z,1010.5
2017-01-25T02:08:23.304Z,1010.52
2017-01-25T02:09:03.888Z,1010.52
2017-01-25T02:09:44.478Z,1010.52
2017-01-25T02:10:25.068Z,1010.47
2017-01-25T02:11:05.646Z,1010.5
2017-01-25T02:11:46.246Z,1010.47
2017-01-25T02:12:26.846Z,1010.46
2017-01-25T02:13:07.454Z,1010.48
2017-01-25T02:13:48.053Z,1010.51
2017-01-25T02:14:28.650Z,1010.49
2017-01-25T02:15:09.238Z,1010.48
2017-01-25T02:15:49.820Z,1010.48
2017-01-25T02:16:30.414Z,1010.53
2017-01-25T02:17:11.002Z,1010.47
2017-01-25T02:17:51.604Z,1010.46
2017-01-25T02:18:32.182Z,1010.52
2017-01-25T02:19:12.772Z,1010.5
2017-01-25T02:19:53.374Z,1010.49
2017-01-25T02:20:33.973Z,1010.47
2017-01-25T02:21:14.571Z,1010.46
2017-01-25T02:21:55.163Z,1010.44
2017-01-25T02:22:35.743Z,1010.45
2017-01-25T02:23:16.321Z,1010.43
2017-01-25T02:23:56.907Z,1010.41
2017-01-25T02:24:37.507Z,1010.44
2017-01-25T02:25:18.097Z,1010.42
2017-01-25T02:25:58.690Z,1010.38
2017-01-25T02:26:39.288Z,1010.36
2017-01-25T02:27:19.891Z,1010.39
2017-01-25T02:28:00.483Z,1010.41
2017-01-25T02:28:41.061Z,1010.38
2017-01-25T02:29:21.640Z,1010.4
2017-01-25T02:30:02.231Z,1010.43
2017-01-25T02:30:42.824Z,1010.39
2017-01-25T02:31:23.417Z,1010.44
2017-01-25T02:32:04.003Z,1010.42
2017-01-25T02:32:44.586Z,1010.41
2017-01-25T02:33:25.171Z,1010.42
2017-01-25T02:34:05.763Z,1010.41
2017-01-25T02:34:46.341Z,1010.44
2017-01-25T02:35:26.927Z,1010.41
2017-01-25T02:36:07.508Z,1010.42
2017-01-25T02:36:48.121Z,1010.43
2017-01-25T02:37:28.712Z,1010.39
2017-01-25T02:38:09.311Z,1010.39
2017-01-25T02:38:49.902Z,1010.39
2017-01-25T02:39:30.476Z,1010.35
2017-01-25T02:40:11.069Z,1010.33
2017-01-25T02:40:51.649Z,1010.32
2017-01-25T02:41:32.222Z,1010.29
2017-01-25T02:42:12.808Z,1010.3
2017-01-25T02:42:53.392Z,1010.24
2017-01-25T02:43:33.985Z,1010.28
2017-01-25T02:44:14.571Z,1010.27
2017-01-25T02:44:55.153Z,1010.27
2017-01-25T02:45:35.728Z,1010.28
2017-01-25T02:46:16.322Z,1010.28
2017-01-25T02:46:56.920Z,1010.29
2017-01-25T02:47:37.518Z,1010.25
2017-01-25T02:48:18.138Z,1010.25
2017-01-25T02:48:58.734Z,1010.27
2017-01-25T02:49:39.344Z,1010.27
2017-01-25T02:50:19.937Z,1010.28
2017-01-25T02:51:00.524Z,1010.27
2017-01-25T02:51:41.102Z,1010.26
2017-01-25T02:52:21.688Z,1010.25
2017-01-25T02:53:02.273Z,1010.3
2017-01-25T02:53:42.862Z,1010.22
2017-01-25T02:54:23.472Z,1010.21
2017-01-25T02:55:04.054Z,1010.23
2017-01-25T02:55:44.633Z,1010.2
2017-01-25T02:56:25.220Z,1010.21
2017-01-25T02:57:05.813Z,1010.21
2017-01-25T02:57:46.410Z,1010.18
2017-01-25T02:58:26.992Z,1010.16
2017-01-25T02:59:07.593Z,1010.18
2017-01-25T02:59:48.214Z,1010.15
2017-01-25T03:00:29.703Z,1010.13
2017-01-25T03:01:10.292Z,1010.14
2017-01-25T03:01:50.871Z,1010.13
2017-01-25T03:02:31.490Z,1010.12
2017-01-25T03:03:12.085Z,1010.14
2017-01-25T03:03:52.668Z,1010.12
2017-01-25T03:04:33.260Z,1010.08
2017-01-25T03:05:13.864Z,1010.06
2017-01-25T03:05:54.490Z,1010.02
2017-01-25T03:06:35.070Z,1010.02
2017-01-25T03:07:15.660Z,1010.01
2017-01-25T03:07:56.257Z,1010.01
2017-01-25T03:08:36.858Z,1009.99
2017-01-25T03:09:17.438Z,1009.97
2017-01-25T03:09:58.031Z,1009.97
2017-01-25T03:10:38.620Z,1009.97
2017-01-25T03:11:19.192Z,1009.95
2017-01-25T03:11:59.784Z,1009.99
2017-01-25T03:12:40.378Z,1009.97
2017-01-25T03:13:20.975Z,1009.98
2017-01-25T03:14:01.556Z,1009.95
2017-01-25T03:14:42.134Z,1010
2017-01-25T03:15:22.707Z,1009.96
2017-01-25T03:16:03.293Z,1009.96
2017-01-25T03:16:43.879Z,1009.94
2017-01-25T03:17:24.503Z,1009.94
2017-01-25T03:18:05.085Z,1009.95
2017-01-25T03:18:45.670Z,1009.97
2017-01-25T03:19:26.257Z,1009.98
2017-01-25T03:20:06.856Z,1009.99
2017-01-25T03:20:47.458Z,1010.01
2017-01-25T03:21:28.044Z,1010.03
2017-01-25T03:22:08.618Z,1010.05
2017-01-25T03:22:49.207Z,1010.01
2017-01-25T03:23:29.808Z,1010.03
2017-01-25T03:24:10.410Z,1010.02
2017-01-25T03:24:51.000Z,1009.99
2017-01-25T03:25:31.612Z,1010
2017-01-25T03:26:12.215Z,1009.96
2017-01-25T03:26:52.788Z,1009.99
2017-01-25T03:27:33.375Z,1009.95
2017-01-25T03:28:13.956Z,1009.98
2017-01-25T03:28:54.531Z,1009.97
2017-01-25T03:29:35.121Z,1009.93
2017-01-25T03:30:15.712Z,1009.9
2017-01-25T03:30:56.306Z,1009.91
2017-01-25T03:31:36.889Z,1009.9
2017-01-25T03:32:17.493Z,1009.91
2017-01-25T03:32:58.078Z,1009.89
2017-01-25T03:33:38.690Z,1009.89
2017-01-25T03:34:19.282Z,1009.88
2017-01-25T03:34:59.858Z,1009.9
2017-01-25T03:35:40.441Z,1009.9
2017-01-25T03:36:21.032Z,1009.88
2017-01-25T03:37:01.645Z,1009.89
2017-01-25T03:37:42.216Z,1009.92
2017-01-25T03:38:22.799Z,1009.92
2017-01-25T03:39:03.395Z,1009.95
2017-01-25T03:39:43.990Z,1009.95
2017-01-25T03:40:24.598Z,1009.93
2017-01-25T03:41:05.217Z,1009.95
2017-01-25T03:41:45.819Z,1009.93
2017-01-25T03:42:26.396Z,1009.94
2017-01-25T03:43:06.987Z,1009.89
2017-01-25T03:43:47.569Z,1009.88
2017-01-25T03:44:28.158Z,1009.9
2017-01-25T03:45:08.756Z,1009.89
2017-01-25T03:45:49.347Z,1009.87
2017-01-25T03:46:29.924Z,1009.87
2017-01-25T03:47:10.561Z,1009.86
2017-01-25T03:47:51.115Z,1009.88
2017-01-25T03:48:31.742Z,1009.88
2017-01-25T03:49:12.324Z,1009.88
2017-01-25T03:49:52.947Z,1009.88
2017-01-25T03:50:33.537Z,1009.89
2017-01-25T03:51:14.128Z,1009.88
2017-01-25T03:51:54.728Z,1009.9
2017-01-25T03:52:35.308Z,1009.95
2017-01-25T03:53:15.885Z,1009.96
2017-01-25T03:53:56.480Z,1009.95
2017-01-25T03:54:37.058Z,1009.99
2017-01-25T03:55:17.657Z,1009.97
2017-01-25T03:55:58.242Z,1009.91
2017-01-25T03:56:38.854Z,1009.98
2017-01-25T03:57:19.443Z,1009.96
2017-01-25T03:58:00.070Z,1009.95
2017-01-25T03:58:40.657Z,1009.92
2017-01-25T03:59:21.250Z,1009.97
2017-01-25T04:00:01.864Z,1009.9
2017-01-25T04:00:42.468Z,1009.91
2017-01-25T04:01:23.053Z,1009.91
2017-01-25T04:02:03.629Z,1009.89
2017-01-25T04:02:44.215Z,1009.88
2017-01-25T04:03:24.804Z,1009.84
2017-01-25T04:04:05.396Z,1009.86
2017-01-25T04:04:45.992Z,1009.85
2017-01-25T04:05:26.569Z,1009.83
2017-01-25T04:06:07.184Z,1009.83
2017-01-25T04:06:47.780Z,1009.84
2017-01-25T04:07:28.383Z,1009.85
2017-01-25T04:08:08.972Z,1009.79
2017-01-25T04:08:49.577Z,1009.83
2017-01-25T04:09:30.178Z,1009.84
2017-01-25T04:10:10.771Z,1009.86
2017-01-25T04:10:51.379Z,1009.82
2017-01-25T04:11:31.971Z,1009.86
2017-01-25T04:12:12.555Z,1009.84
2017-01-25T04:12:53.135Z,1009.88
2017-01-25T04:13:33.725Z,1009.89
2017-01-25T04:14:14.324Z,1009.91
2017-01-25T04:14:54.906Z,1009.91
2017-01-25T04:15:35.489Z,1009.91
2017-01-25T04:16:16.086Z,1009.89
2017-01-25T04:16:56.664Z,1009.87
2017-01-25T04:17:37.248Z,1009.88
2017-01-25T04:18:17.832Z,1009.83
2017-01-25T04:18:58.424Z,1009.88
2017-01-25T04:19:39.011Z,1009.8
2017-01-25T04:20:19.596Z,1009.82
2017-01-25T04:21:00.168Z,1009.82
2017-01-25T04:21:40.763Z,1009.84
2017-01-25T04:22:21.351Z,1009.86
2017-01-25T04:23:01.952Z,1009.85
2017-01-25T04:23:42.532Z,1009.84
2017-01-25T04:24:23.117Z,1009.84
2017-01-25T04:25:03.702Z,1009.8
2017-01-25T04:25:44.285Z,1009.82
2017-01-25T04:26:24.882Z,1009.82
2017-01-25T04:27:05.480Z,1009.82
2017-01-25T04:27:46.086Z,1009.84
2017-01-25T04:28:26.678Z,1009.83
2017-01-25T04:29:07.256Z,1009.84
2017-01-25T04:29:47.839Z,1009.87
2017-01-25T04:30:28.409Z,1009.84
2017-01-25T04:31:09.001Z,1009.82
2017-01-25T04:31:49.585Z,1009.83
2017-01-25T04:32:30.194Z,1009.82
2017-01-25T04:33:10.751Z,1009.87
2017-01-25T04:33:51.331Z,1009.84
2017-01-25T04:34:31.908Z,1009.86
2017-01-25T04:35:12.494Z,1009.85
2017-01-25T04:35:53.083Z,1009.9
2017-01-25T04:36:33.659Z,1009.85
2017-01-25T04:37:14.257Z,1009.89
2017-01-25T04:37:54.852Z,1009.92
2017-01-25T04:38:35.438Z,1009.91
2017-01-25T04:39:16.009Z,1009.91
2017-01-25T04:39:56.592Z,1009.91
2017-01-25T04:40:37.189Z,1009.93
2017-01-25T04:41:17.774Z,1009.93
2017-01-25T04:41:58.354Z,1009.96
2017-01-25T04:42:38.937Z,1009.98
2017-01-25T04:43:19.526Z,1009.99
2017-01-25T04:44:00.113Z,1010.03
2017-01-25T04:44:40.696Z,1010
2017-01-25T04:45:21.300Z,1010.02
2017-01-25T04:46:01.900Z,1010.05
2017-01-25T04:46:42.492Z,1010.07
2017-01-25T04:47:23.075Z,1010.03
2017-01-25T04:48:03.656Z,1010.08
2017-01-25T04:48:44.251Z,1010.08
2017-01-25T04:49:24.849Z,1010.03
2017-01-25T04:50:05.446Z,1010.05
2017-01-25T04:50:46.020Z,1010.06
2017-01-25T04:51:26.596Z,1010.05
2017-01-25T04:52:07.185Z,1010.04
2017-01-25T04:52:47.782Z,1010.04
2017-01-25T04:53:28.390Z,1010.01
2017-01-25T04:54:08.974Z,1010.02
2017-01-25T04:54:49.556Z,1010.04
2017-01-25T04:55:30.151Z,1010.04
2017-01-25T04:56:10.755Z,1010.04
2017-01-25T04:56:51.316Z,1010.07
2017-01-25T04:57:31.911Z,1010.03
2017-01-25T04:58:12.493Z,1010.05
2017-01-25T04:58:53.077Z,1010.03
2017-01-25T04:59:33.682Z,1010.04
2017-01-25T05:00:14.263Z,1010.05
2017-01-25T05:00:54.856Z,1010.03
2017-01-25T05:01:35.444Z,1010.05
2017-01-25T05:02:16.030Z,1010.08
2017-01-25T05:02:56.627Z,1010.08
2017-01-25T05:03:37.224Z,1010.11
2017-01-25T05:04:17.821Z,1010.07
2017-01-25T05:04:58.432Z,1010.02
2017-01-25T05:05:39.019Z,1010.03
2017-01-25T05:06:19.601Z,1010.03
2017-01-25T05:07:00.181Z,1010.03
2017-01-25T05:07:40.763Z,1010.05
2017-01-25T05:08:21.353Z,1010.02
2017-01-25T05:09:01.941Z,1010.07
2017-01-25T05:09:42.532Z,1010.04
2017-01-25T05:10:23.111Z,1010.06
2017-01-25T05:11:03.686Z,1010.06
2017-01-25T05:11:44.277Z,1010.02
2017-01-25T05:12:24.869Z,1010.03
2017-01-25T05:13:05.447Z,1010.04
2017-01-25T05:13:46.029Z,1010.03
2017-01-25T05:14:26.613Z,1010.05
2017-01-25T05:15:07.216Z,1010.04
2017-01-25T05:15:47.800Z,1010.05
2017-01-25T05:16:28.381Z,1010.06
2017-01-25T05:17:09.000Z,1010.05
2017-01-25T05:17:49.607Z,1010.06
2017-01-25T05:18:30.188Z,1010.09
2017-01-25T05:19:10.779Z,1010.08
2017-01-25T05:19:51.385Z,1010.09
2017-01-25T05:20:31.974Z,1010.1
2017-01-25T05:21:12.566Z,1010.06
2017-01-25T05:21:53.164Z,1010.07
2017-01-25T05:22:33.753Z,1010.09
2017-01-25T05:23:14.350Z,1010.08
2017-01-25T05:23:54.934Z,1010.06
2017-01-25T05:24:35.520Z,1010.08
2017-01-25T05:25:16.120Z,1010.05
2017-01-25T05:25:56.722Z,1010.06
2017-01-25T05:26:37.307Z,1010.07
2017-01-25T05:27:17.895Z,1010.07
2017-01-25T05:27:58.478Z,1010.05
2017-01-25T05:28:39.063Z,1010.04
2017-01-25T05:29:19.643Z,1010.05
2017-01-25T05:30:00.225Z,1010.04
2017-01-25T05:30:40.809Z,1010.06
2017-01-25T05:31:21.404Z,1010.05
2017-01-25T05:32:01.988Z,1010.08
2017-01-25T05:32:42.582Z,1010.09
2017-01-25T05:33:23.166Z,1010.05
2017-01-25T05:34:03.743Z,1010.08
2017-01-25T05:34:44.330Z,1010.09
2017-01-25T05:35:24.935Z,1010.07
2017-01-25T05:36:05.527Z,1010.06
2017-01-25T05:36:46.130Z,1010.06
2017-01-25T05:37:26.714Z,1010.06
2017-01-25T05:38:07.298Z,1010.06
2017-01-25T05:38:47.888Z,1010.09
2017-01-25T05:39:28.474Z,1010.05
2017-01-25T05:40:09.068Z,1010.06
2017-01-25T05:40:49.658Z,1010.08
2017-01-25T05:41:30.242Z,1010.05
2017-01-25T05:42:10.816Z,1010.07
2017-01-25T05:42:51.397Z,1010.09
2017-01-25T05:43:31.993Z,1010.11
2017-01-25T05:44:12.603Z,1010.09
2017-01-25T05:44:53.187Z,1010.08
2017-01-25T05:45:33.781Z,1010.11
2017-01-25T05:46:14.359Z,1010.12
2017-01-25T05:46:54.945Z,1010.08
2017-01-25T05:47:35.540Z,1010.06
2017-01-25T05:48:16.120Z,1010.09
2017-01-25T05:48:56.711Z,1010.07
2017-01-25T05:49:37.308Z,1010.07
2017-01-25T05:50:17.912Z,1010.11
2017-01-25T05:50:58.489Z,1010.06
2017-01-25T05:51:39.072Z,1010.08
2017-01-25T05:52:19.650Z,1010.12
2017-01-25T05:53:00.237Z,1010.12
2017-01-25T05:53:40.863Z,1010.08
2017-01-25T05:54:21.446Z,1010.1
2017-01-25T05:55:02.023Z,1010.11
2017-01-25T05:55:42.600Z,1010.1
2017-01-25T05:56:23.184Z,1010.1
2017-01-25T05:57:03.771Z,1010.1
2017-01-25T05:57:44.358Z,1010.08
2017-01-25T05:58:24.940Z,1010.12
2017-01-25T05:59:05.542Z,1010.11
2017-01-25T05:59:46.138Z,1010.09
2017-01-25T06:00:26.733Z,1010.12
2017-01-25T06:01:07.319Z,1010.09
2017-01-25T06:01:47.905Z,1010.07
2017-01-25T06:02:28.485Z,1010.08
2017-01-25T06:03:09.072Z,1010.11
2017-01-25T06:03:49.657Z,1010.04
2017-01-25T06:04:30.246Z,1010.11
2017-01-25T06:05:10.835Z,1010.08
2017-01-25T06:05:51.417Z,1010.11
2017-01-25T06:06:31.997Z,1010.07
2017-01-25T06:07:12.580Z,1010.06
2017-01-25T06:07:53.180Z,1010.11
2017-01-25T06:08:33.761Z,1010.13
2017-01-25T06:09:14.348Z,1010.1
2017-01-25T06:09:54.929Z,1010.15
2017-01-25T06:10:35.503Z,1010.14
2017-01-25T06:11:16.084Z,1010.12
2017-01-25T06:11:56.668Z,1010.16
2017-01-25T06:12:37.306Z,1010.12
2017-01-25T06:13:17.891Z,1010.11
2017-01-25T06:13:58.442Z,1010.11
2017-01-25T06:14:39.019Z,1010.09
2017-01-25T06:15:19.604Z,1010.08
2017-01-25T06:16:00.189Z,1010.1
2017-01-25T06:16:40.773Z,1010.07
2017-01-25T06:17:21.366Z,1010.08
2017-01-25T06:18:01.942Z,1010.07
2017-01-25T06:18:42.514Z,1010.11
2017-01-25T06:19:23.112Z,1010.12
2017-01-25T06:20:03.705Z,1010.12
2017-01-25T06:20:44.286Z,1010.09
2017-01-25T06:21:24.884Z,1010.16
2017-01-25T06:22:05.476Z,1010.16
2017-01-25T06:22:46.056Z,1010.09
2017-01-25T06:23:26.635Z,1010.11
2017-01-25T06:24:07.239Z,1010.09
2017-01-25T06:24:47.824Z,1010.12
2017-01-25T06:25:28.420Z,1010.08
2017-01-25T06:26:09.011Z,1010.11
2017-01-25T06:26:49.591Z,1010.12
2017-01-25T06:27:30.189Z,1010.08
2017-01-25T06:28:10.769Z,1010.13
2017-01-25T06:28:51.343Z,1010.11
2017-01-25T06:29:31.925Z,1010.12
2017-01-25T06:30:12.546Z,1010.12
2017-01-25T06:30:53.131Z,1010.14
2017-01-25T06:31:33.734Z,1010.12
2017-01-25T06:32:14.310Z,1010.13
2017-01-25T06:32:54.921Z,1010.1
2017-01-25T06:33:35.516Z,1010.16
2017-01-25T06:34:16.106Z,1010.12
2017-01-25T06:34:56.708Z,1010.15
2017-01-25T06:35:37.306Z,1010.12
2017-01-25T06:36:17.887Z,1010.12
2017-01-25T06:36:58.475Z,1010.13
2017-01-25T06:37:39.067Z,1010.15
2017-01-25T06:38:19.651Z,1010.12
2017-01-25T06:39:00.228Z,1010.14
2017-01-25T06:39:40.819Z,1010.13
2017-01-25T06:40:21.405Z,1010.12
2017-01-25T06:41:02.011Z,1010.13
2017-01-25T06:41:42.596Z,1010.14
2017-01-25T06:42:23.219Z,1010.13
2017-01-25T06:43:03.757Z,1010.09
2017-01-25T06:43:44.358Z,1010.08
2017-01-25T06:44:24.940Z,1010.14
2017-01-25T06:45:05.534Z,1010.11
2017-01-25T06:45:46.132Z,1010.12
2017-01-25T06:46:26.727Z,1010.14
2017-01-25T06:47:07.309Z,1010.19
2017-01-25T06:47:47.905Z,1010.17
2017-01-25T06:48:28.499Z,1010.2
2017-01-25T06:49:09.080Z,1010.2
2017-01-25T06:49:49.669Z,1010.22
2017-01-25T06:50:30.246Z,1010.2
2017-01-25T06:51:10.846Z,1010.22
2017-01-25T06:51:51.424Z,1010.24
2017-01-25T06:52:32.018Z,1010.21
2017-01-25T06:53:12.596Z,1010.23
2017-01-25T06:53:53.174Z,1010.24
2017-01-25T06:54:33.767Z,1010.24
2017-01-25T06:55:14.370Z,1010.21
2017-01-25T06:55:54.966Z,1010.25
2017-01-25T06:56:35.552Z,1010.26
2017-01-25T06:57:16.128Z,1010.23
2017-01-25T06:57:56.713Z,1010.23
2017-01-25T06:58:37.289Z,1010.26
2017-01-25T06:59:17.882Z,1010.27
2017-01-25T06:59:58.470Z,1010.21
2017-01-25T07:00:39.074Z,1010.22
2017-01-25T07:01:19.664Z,1010.2
2017-01-25T07:02:00.247Z,1010.21
2017-01-25T07:02:40.828Z,1010.22
2017-01-25T07:03:21.408Z,1010.18
2017-01-25T07:04:02.000Z,1010.21
2017-01-25T07:04:42.584Z,1010.21
2017-01-25T07:05:23.200Z,1010.21
2017-01-25T07:06:03.798Z,1010.24
2017-01-25T07:06:44.385Z,1010.2
2017-01-25T07:07:24.984Z,1010.23
2017-01-25T07:08:05.565Z,1010.26
2017-01-25T07:08:46.145Z,1010.27
2017-01-25T07:09:26.738Z,1010.25
2017-01-25T07:10:07.349Z,1010.26
2017-01-25T07:10:47.933Z,1010.27
2017-01-25T07:11:28.544Z,1010.3
2017-01-25T07:12:09.140Z,1010.29
2017-01-25T07:12:49.735Z,1010.28
2017-01-25T07:13:30.319Z,1010.31
2017-01-25T07:14:10.914Z,1010.34
2017-01-25T07:14:51.503Z,1010.32
2017-01-25T07:15:32.093Z,1010.34
2017-01-25T07:16:12.670Z,1010.31
2017-01-25T07:16:53.250Z,1010.31
2017-01-25T07:17:33.850Z,1010.31
2017-01-25T07:18:14.462Z,1010.31
2017-01-25T07:18:55.045Z,1010.31
2017-01-25T07:19:35.637Z,1010.29
2017-01-25T07:20:16.253Z,1010.3
2017-01-25T07:20:56.839Z,1010.35
2017-01-25T07:21:37.445Z,1010.33
2017-01-25T07:22:18.047Z,1010.31
2017-01-25T07:22:58.632Z,1010.36
2017-01-25T07:23:39.248Z,1010.34
2017-01-25T07:24:19.842Z,1010.4
2017-01-25T07:25:00.460Z,1010.38
2017-01-25T07:25:41.063Z,1010.42
2017-01-25T07:26:21.651Z,1010.42
2017-01-25T07:27:02.290Z,1010.47
2017-01-25T07:27:42.870Z,1010.45
2017-01-25T07:28:23.463Z,1010.44
2017-01-25T07:29:04.046Z,1010.45
2017-01-25T07:29:44.625Z,1010.43
2017-01-25T07:30:25.216Z,1010.46
2017-01-25T07:31:05.815Z,1010.44
2017-01-25T07:31:46.399Z,1010.45
2017-01-25T07:32:27.008Z,1010.47
2017-01-25T07:33:07.620Z,1010.44
2017-01-25T07:33:48.215Z,1010.46
2017-01-25T07:34:28.791Z,1010.45
2017-01-25T07:35:09.377Z,1010.41
2017-01-25T07:35:49.987Z,1010.43
2017-01-25T07:36:30.607Z,1010.4
2017-01-25T07:37:11.188Z,1010.45
2017-01-25T07:37:51.804Z,1010.46
2017-01-25T07:38:32.390Z,1010.43
2017-01-25T07:39:12.981Z,1010.47
2017-01-25T07:39:53.603Z,1010.47
2017-01-25T07:40:34.195Z,1010.47
2017-01-25T07:41:14.799Z,1010.48
2017-01-25T07:41:55.392Z,1010.43
2017-01-25T07:42:35.992Z,1010.45
2017-01-25T07:43:16.617Z,1010.43
2017-01-25T07:43:57.194Z,1010.47
2017-01-25T07:44:37.787Z,1010.45
2017-01-25T07:45:18.380Z,1010.47
2017-01-25T07:45:58.973Z,1010.45
2017-01-25T07:46:39.559Z,1010.45
2017-01-25T07:47:20.150Z,1010.47
2017-01-25T07:48:00.747Z,1010.46
2017-01-25T07:48:41.376Z,1010.45
2017-01-25T07:49:21.987Z,1010.48
2017-01-25T07:50:02.615Z,1010.5
2017-01-25T07:50:43.206Z,1010.49
2017-01-25T07:51:23.797Z,1010.5
2017-01-25T07:52:04.423Z,1010.48
2017-01-25T07:52:45.013Z,1010.51
2017-01-25T07:53:25.605Z,1010.51
2017-01-25T07:54:06.193Z,1010.52
2017-01-25T07:54:46.778Z,1010.54
2017-01-25T07:55:27.375Z,1010.59
2017-01-25T07:56:07.983Z,1010.59
2017-01-25T07:56:48.560Z,1010.57
2017-01-25T07:57:29.143Z,1010.59
2017-01-25T07:58:09.742Z,1010.59
2017-01-25T07:58:50.327Z,1010.6
2017-01-25T07:59:30.926Z,1010.62
2017-01-25T08:00:11.540Z,1010.59
2017-01-25T08:00:52.151Z,1010.59
2017-01-25T08:01:32.763Z,1010.59
2017-01-25T08:02:13.362Z,1010.57
2017-01-25T08:02:53.996Z,1010.56
2017-01-25T08:03:34.607Z,1010.52
2017-01-25T08:04:15.225Z,1010.58
2017-01-25T08:04:56.681Z,1010.58
2017-01-25T08:05:37.298Z,1010.56
2017-01-25T08:06:17.896Z,1010.6
2017-01-25T08:06:58.488Z,1010.6
2017-01-25T08:07:39.109Z,1010.64
2017-01-25T08:08:19.696Z,1010.59
2017-01-25T08:09:00.293Z,1010.57
2017-01-25T08:09:40.897Z,1010.58
2017-01-25T08:10:21.490Z,1010.64
2017-01-25T08:11:02.080Z,1010.58
2017-01-25T08:11:42.685Z,1010.56
2017-01-25T08:12:23.306Z,1010.54
2017-01-25T08:13:03.920Z,1010.63